Terminal Aerodrome Forecast
Issued by NWS Paducah, KY

Home | Current Version | Previous Version | Text Only | Print | Product List | Glossary Off
Versions: 1 2 3 4 5 6 7 8 9 10 11 12 13 14 15 16 17 18 19 20 21

039
FTUS43 KPAH 121606 AAA
TAFEVV
TAF AMD
KEVV 121606Z 1216/1312 29006KT P6SM SCT015 OVC040
      TEMPO 1216/1219 BKN015
     FM121900 31013G20KT P6SM BKN015
     FM130200 33011KT P6SM SCT015=

USA.gov is the U.S. government's official web portal to all federal, state and local government web resources and services.